sensor_id;sensor_type;location;lat;lon;timestamp;P1;durP1;ratioP1;P2;durP2;ratioP2
3939;SDS011;1984;48.312;9.244;2022-12-10T00:01:22;22.13;;;9.90;;
3939;SDS011;1984;48.312;9.244;2022-12-10T00:03:49;20.67;;;11.60;;
3939;SDS011;1984;48.312;9.244;2022-12-10T00:06:16;21.67;;;10.70;;
3939;SDS011;1984;48.312;9.244;2022-12-10T00:08:45;20.53;;;10.30;;
3939;SDS011;1984;48.312;9.244;2022-12-10T00:11:11;22.97;;;9.93;;
3939;SDS011;1984;48.312;9.244;2022-12-10T00:13:38;20.47;;;10.43;;
3939;SDS011;1984;48.312;9.244;2022-12-10T00:16:04;26.67;;;12.30;;
3939;SDS011;1984;48.312;9.244;2022-12-10T00:18:32;25.37;;;12.47;;
3939;SDS011;1984;48.312;9.244;2022-12-10T00:21:01;21.03;;;10.70;;
3939;SDS011;1984;48.312;9.244;2022-12-10T00:23:28;21.13;;;11.20;;
3939;SDS011;1984;48.312;9.244;2022-12-10T00:26:00;22.80;;;11.37;;
3939;SDS011;1984;48.312;9.244;2022-12-10T00:28:30;21.60;;;11.13;;
3939;SDS011;1984;48.312;9.244;2022-12-10T00:31:01;25.47;;;12.10;;
3939;SDS011;1984;48.312;9.244;2022-12-10T00:33:31;29.47;;;12.00;;
3939;SDS011;1984;48.312;9.244;2022-12-10T00:36:00;27.20;;;12.53;;
3939;SDS011;1984;48.312;9.244;2022-12-10T00:38:31;35.00;;;13.47;;
3939;SDS011;1984;48.312;9.244;2022-12-10T00:40:57;23.90;;;11.37;;
3939;SDS011;1984;48.312;9.244;2022-12-10T00:43:22;23.37;;;11.60;;
3939;SDS011;1984;48.312;9.244;2022-12-10T00:45:48;30.30;;;11.97;;
3939;SDS011;1984;48.312;9.244;2022-12-10T00:48:14;30.50;;;13.23;;
3939;SDS011;1984;48.312;9.244;2022-12-10T00:50:39;29.30;;;13.13;;
3939;SDS011;1984;48.312;9.244;2022-12-10T00:53:05;24.17;;;11.20;;
3939;SDS011;1984;48.312;9.244;2022-12-10T00:55:30;26.60;;;12.00;;
3939;SDS011;1984;48.312;9.244;2022-12-10T00:57:56;29.20;;;12.57;;
3939;SDS011;1984;48.312;9.244;2022-12-10T01:00:21;28.90;;;12.37;;
3939;SDS011;1984;48.312;9.244;2022-12-10T01:02:47;25.10;;;13.07;;
3939;SDS011;1984;48.312;9.244;2022-12-10T01:05:12;30.50;;;13.30;;
3939;SDS011;1984;48.312;9.244;2022-12-10T01:07:38;28.77;;;12.27;;
3939;SDS011;1984;48.312;9.244;2022-12-10T01:10:03;29.77;;;12.67;;
3939;SDS011;1984;48.312;9.244;2022-12-10T01:12:29;31.60;;;13.90;;
3939;SDS011;1984;48.312;9.244;2022-12-10T01:14:55;27.90;;;12.90;;
3939;SDS011;1984;48.312;9.244;2022-12-10T01:17:20;29.57;;;12.73;;
3939;SDS011;1984;48.312;9.244;2022-12-10T01:19:46;29.43;;;13.23;;
3939;SDS011;1984;48.312;9.244;2022-12-10T01:22:12;22.97;;;11.57;;
3939;SDS011;1984;48.312;9.244;2022-12-10T01:24:37;39.43;;;12.40;;
3939;SDS011;1984;48.312;9.244;2022-12-10T01:27:03;29.10;;;13.83;;
3939;SDS011;1984;48.312;9.244;2022-12-10T01:29:29;25.83;;;12.43;;
3939;SDS011;1984;48.312;9.244;2022-12-10T01:31:55;28.70;;;12.70;;
3939;SDS011;1984;48.312;9.244;2022-12-10T01:34:22;28.37;;;12.77;;
3939;SDS011;1984;48.312;9.244;2022-12-10T01:36:52;27.83;;;12.40;;
3939;SDS011;1984;48.312;9.244;2022-12-10T01:39:20;26.43;;;11.33;;
3939;SDS011;1984;48.312;9.244;2022-12-10T01:41:51;27.23;;;11.77;;
3939;SDS011;1984;48.312;9.244;2022-12-10T01:46:45;33.57;;;13.67;;
3939;SDS011;1984;48.312;9.244;2022-12-10T01:49:15;32.67;;;14.20;;
3939;SDS011;1984;48.312;9.244;2022-12-10T01:51:44;36.13;;;14.90;;
3939;SDS011;1984;48.312;9.244;2022-12-10T01:54:13;39.47;;;15.33;;
3939;SDS011;1984;48.312;9.244;2022-12-10T01:56:44;27.53;;;12.80;;
3939;SDS011;1984;48.312;9.244;2022-12-10T01:59:13;24.53;;;11.73;;
3939;SDS011;1984;48.312;9.244;2022-12-10T02:01:46;32.03;;;14.23;;
3939;SDS011;1984;48.312;9.244;2022-12-10T02:04:22;34.43;;;14.20;;
3939;SDS011;1984;48.312;9.244;2022-12-10T02:09:44;30.47;;;12.37;;
3939;SDS011;1984;48.312;9.244;2022-12-10T02:12:20;36.60;;;13.03;;
3939;SDS011;1984;48.312;9.244;2022-12-10T02:14:54;28.20;;;12.47;;
3939;SDS011;1984;48.312;9.244;2022-12-10T02:17:24;27.43;;;12.50;;
3939;SDS011;1984;48.312;9.244;2022-12-10T02:20:07;36.43;;;14.40;;
3939;SDS011;1984;48.312;9.244;2022-12-10T02:22:42;28.47;;;13.37;;
3939;SDS011;1984;48.312;9.244;2022-12-10T02:25:35;31.07;;;12.60;;
3939;SDS011;1984;48.312;9.244;2022-12-10T02:28:34;31.30;;;13.03;;
3939;SDS011;1984;48.312;9.244;2022-12-10T02:31:05;31.37;;;14.10;;
3939;SDS011;1984;48.312;9.244;2022-12-10T02:33:31;33.47;;;12.67;;
3939;SDS011;1984;48.312;9.244;2022-12-10T02:36:00;40.70;;;15.20;;
3939;SDS011;1984;48.312;9.244;2022-12-10T02:38:28;35.37;;;14.23;;
3939;SDS011;1984;48.312;9.244;2022-12-10T02:40:57;29.90;;;13.50;;
3939;SDS011;1984;48.312;9.244;2022-12-10T02:43:27;37.03;;;15.80;;
3939;SDS011;1984;48.312;9.244;2022-12-10T02:45:55;30.60;;;14.17;;
3939;SDS011;1984;48.312;9.244;2022-12-10T02:48:22;33.53;;;14.33;;
3939;SDS011;1984;48.312;9.244;2022-12-10T02:50:48;31.67;;;14.90;;
3939;SDS011;1984;48.312;9.244;2022-12-10T02:53:14;27.60;;;13.60;;
3939;SDS011;1984;48.312;9.244;2022-12-10T02:55:44;30.53;;;13.37;;
3939;SDS011;1984;48.312;9.244;2022-12-10T03:01:25;30.83;;;13.40;;
3939;SDS011;1984;48.312;9.244;2022-12-10T03:04:13;35.50;;;14.10;;
3939;SDS011;1984;48.312;9.244;2022-12-10T03:06:50;31.60;;;13.30;;
3939;SDS011;1984;48.312;9.244;2022-12-10T03:09:23;33.47;;;14.47;;
3939;SDS011;1984;48.312;9.244;2022-12-10T03:12:03;31.63;;;13.87;;
3939;SDS011;1984;48.312;9.244;2022-12-10T03:14:36;33.97;;;13.20;;
3939;SDS011;1984;48.312;9.244;2022-12-10T03:17:02;33.17;;;13.40;;
3939;SDS011;1984;48.312;9.244;2022-12-10T03:19:35;36.37;;;16.33;;
3939;SDS011;1984;48.312;9.244;2022-12-10T03:22:05;29.83;;;14.20;;
3939;SDS011;1984;48.312;9.244;2022-12-10T03:24:32;30.87;;;12.30;;
3939;SDS011;1984;48.312;9.244;2022-12-10T03:26:59;34.10;;;13.67;;
3939;SDS011;1984;48.312;9.244;2022-12-10T03:29:33;30.73;;;13.80;;
3939;SDS011;1984;48.312;9.244;2022-12-10T03:32:04;26.97;;;12.80;;
3939;SDS011;1984;48.312;9.244;2022-12-10T03:34:30;30.27;;;14.20;;
3939;SDS011;1984;48.312;9.244;2022-12-10T03:36:56;31.03;;;13.80;;
3939;SDS011;1984;48.312;9.244;2022-12-10T03:39:23;30.00;;;13.17;;
3939;SDS011;1984;48.312;9.244;2022-12-10T03:41:49;29.17;;;14.57;;
3939;SDS011;1984;48.312;9.244;2022-12-10T03:44:19;31.77;;;13.47;;
3939;SDS011;1984;48.312;9.244;2022-12-10T03:46:53;30.67;;;13.10;;
3939;SDS011;1984;48.312;9.244;2022-12-10T03:49:18;27.73;;;11.43;;
3939;SDS011;1984;48.312;9.244;2022-12-10T03:51:44;29.57;;;12.77;;
3939;SDS011;1984;48.312;9.244;2022-12-10T03:54:09;33.50;;;14.37;;
3939;SDS011;1984;48.312;9.244;2022-12-10T03:56:35;25.93;;;12.80;;
3939;SDS011;1984;48.312;9.244;2022-12-10T03:59:00;30.87;;;13.23;;
3939;SDS011;1984;48.312;9.244;2022-12-10T04:01:26;34.20;;;13.23;;
3939;SDS011;1984;48.312;9.244;2022-12-10T04:03:51;31.80;;;13.90;;
3939;SDS011;1984;48.312;9.244;2022-12-10T04:06:18;33.97;;;13.53;;
3939;SDS011;1984;48.312;9.244;2022-12-10T04:08:44;34.00;;;13.53;;
3939;SDS011;1984;48.312;9.244;2022-12-10T04:11:11;34.03;;;12.93;;
3939;SDS011;1984;48.312;9.244;2022-12-10T04:13:37;29.60;;;13.13;;
3939;SDS011;1984;48.312;9.244;2022-12-10T04:16:23;35.93;;;14.17;;
3939;SDS011;1984;48.312;9.244;2022-12-10T04:18:53;34.17;;;14.77;;
3939;SDS011;1984;48.312;9.244;2022-12-10T04:21:19;26.87;;;13.90;;
3939;SDS011;1984;48.312;9.244;2022-12-10T04:24:03;31.40;;;14.87;;
3939;SDS011;1984;48.312;9.244;2022-12-10T04:26:48;35.23;;;13.70;;
3939;SDS011;1984;48.312;9.244;2022-12-10T04:29:20;32.13;;;14.80;;
3939;SDS011;1984;48.312;9.244;2022-12-10T04:31:54;27.07;;;11.60;;
3939;SDS011;1984;48.312;9.244;2022-12-10T04:34:20;25.63;;;13.07;;
3939;SDS011;1984;48.312;9.244;2022-12-10T04:36:46;31.57;;;13.80;;
3939;SDS011;1984;48.312;9.244;2022-12-10T04:39:12;32.20;;;13.90;;
3939;SDS011;1984;48.312;9.244;2022-12-10T04:41:39;44.60;;;16.27;;
3939;SDS011;1984;48.312;9.244;2022-12-10T04:44:05;33.87;;;13.70;;
3939;SDS011;1984;48.312;9.244;2022-12-10T04:46:31;28.13;;;14.10;;
3939;SDS011;1984;48.312;9.244;2022-12-10T04:48:57;32.07;;;13.33;;
3939;SDS011;1984;48.312;9.244;2022-12-10T04:51:23;32.30;;;13.33;;
3939;SDS011;1984;48.312;9.244;2022-12-10T04:53:48;27.80;;;13.53;;
3939;SDS011;1984;48.312;9.244;2022-12-10T04:56:14;26.83;;;13.33;;
3939;SDS011;1984;48.312;9.244;2022-12-10T04:58:39;34.00;;;13.73;;
3939;SDS011;1984;48.312;9.244;2022-12-10T05:01:06;27.70;;;14.10;;
3939;SDS011;1984;48.312;9.244;2022-12-10T05:03:34;27.83;;;13.70;;
3939;SDS011;1984;48.312;9.244;2022-12-10T05:06:10;28.20;;;14.17;;
3939;SDS011;1984;48.312;9.244;2022-12-10T05:08:37;32.13;;;14.10;;
3939;SDS011;1984;48.312;9.244;2022-12-10T05:11:04;25.30;;;12.13;;
3939;SDS011;1984;48.312;9.244;2022-12-10T05:13:32;24.33;;;12.57;;
3939;SDS011;1984;48.312;9.244;2022-12-10T05:15:59;25.10;;;13.20;;
3939;SDS011;1984;48.312;9.244;2022-12-10T05:18:26;31.33;;;12.60;;
3939;SDS011;1984;48.312;9.244;2022-12-10T05:20:52;24.13;;;11.67;;
3939;SDS011;1984;48.312;9.244;2022-12-10T05:23:17;23.00;;;11.53;;
3939;SDS011;1984;48.312;9.244;2022-12-10T05:26:01;29.07;;;12.00;;
3939;SDS011;1984;48.312;9.244;2022-12-10T05:28:35;20.10;;;11.60;;
3939;SDS011;1984;48.312;9.244;2022-12-10T05:31:12;26.50;;;12.23;;
3939;SDS011;1984;48.312;9.244;2022-12-10T05:33:39;27.67;;;12.73;;
3939;SDS011;1984;48.312;9.244;2022-12-10T05:36:05;23.73;;;11.73;;
3939;SDS011;1984;48.312;9.244;2022-12-10T05:38:31;24.47;;;11.03;;
3939;SDS011;1984;48.312;9.244;2022-12-10T05:41:02;24.07;;;12.30;;
3939;SDS011;1984;48.312;9.244;2022-12-10T05:43:38;20.90;;;9.90;;
3939;SDS011;1984;48.312;9.244;2022-12-10T05:46:05;25.97;;;12.50;;
3939;SDS011;1984;48.312;9.244;2022-12-10T05:48:34;25.40;;;10.83;;
3939;SDS011;1984;48.312;9.244;2022-12-10T05:51:07;23.00;;;11.93;;
3939;SDS011;1984;48.312;9.244;2022-12-10T05:53:34;20.73;;;9.77;;
3939;SDS011;1984;48.312;9.244;2022-12-10T05:56:01;25.00;;;11.83;;
3939;SDS011;1984;48.312;9.244;2022-12-10T05:58:29;17.60;;;10.17;;
3939;SDS011;1984;48.312;9.244;2022-12-10T06:00:55;18.20;;;9.60;;
3939;SDS011;1984;48.312;9.244;2022-12-10T06:03:21;17.33;;;8.90;;
3939;SDS011;1984;48.312;9.244;2022-12-10T06:05:47;18.90;;;10.20;;
3939;SDS011;1984;48.312;9.244;2022-12-10T06:08:12;18.10;;;7.80;;
3939;SDS011;1984;48.312;9.244;2022-12-10T06:10:38;12.50;;;7.90;;
3939;SDS011;1984;48.312;9.244;2022-12-10T06:13:03;16.60;;;7.17;;
3939;SDS011;1984;48.312;9.244;2022-12-10T06:15:29;14.03;;;8.90;;
3939;SDS011;1984;48.312;9.244;2022-12-10T06:17:56;17.63;;;7.87;;
3939;SDS011;1984;48.312;9.244;2022-12-10T06:20:22;15.93;;;7.50;;
3939;SDS011;1984;48.312;9.244;2022-12-10T06:22:49;12.33;;;7.23;;
3939;SDS011;1984;48.312;9.244;2022-12-10T06:25:14;14.17;;;7.53;;
3939;SDS011;1984;48.312;9.244;2022-12-10T06:27:40;16.60;;;7.73;;
3939;SDS011;1984;48.312;9.244;2022-12-10T06:30:06;17.53;;;9.37;;
3939;SDS011;1984;48.312;9.244;2022-12-10T06:32:32;15.60;;;8.40;;
3939;SDS011;1984;48.312;9.244;2022-12-10T06:34:57;14.83;;;8.30;;
3939;SDS011;1984;48.312;9.244;2022-12-10T06:37:23;14.07;;;7.70;;
3939;SDS011;1984;48.312;9.244;2022-12-10T06:39:50;15.60;;;8.23;;
3939;SDS011;1984;48.312;9.244;2022-12-10T06:42:17;13.00;;;7.40;;
3939;SDS011;1984;48.312;9.244;2022-12-10T06:44:43;13.27;;;7.10;;
3939;SDS011;1984;48.312;9.244;2022-12-10T06:47:09;23.70;;;7.70;;
3939;SDS011;1984;48.312;9.244;2022-12-10T06:49:35;16.90;;;7.47;;
3939;SDS011;1984;48.312;9.244;2022-12-10T06:52:01;13.70;;;7.30;;
3939;SDS011;1984;48.312;9.244;2022-12-10T06:54:28;13.80;;;7.43;;
3939;SDS011;1984;48.312;9.244;2022-12-10T06:56:54;18.87;;;8.00;;
3939;SDS011;1984;48.312;9.244;2022-12-10T06:59:19;19.20;;;8.80;;
3939;SDS011;1984;48.312;9.244;2022-12-10T07:01:45;16.40;;;8.40;;
3939;SDS011;1984;48.312;9.244;2022-12-10T07:04:11;14.80;;;6.77;;
3939;SDS011;1984;48.312;9.244;2022-12-10T07:06:37;16.23;;;6.93;;
3939;SDS011;1984;48.312;9.244;2022-12-10T07:09:03;13.70;;;6.57;;
3939;SDS011;1984;48.312;9.244;2022-12-10T07:11:29;12.37;;;6.80;;
3939;SDS011;1984;48.312;9.244;2022-12-10T07:13:56;15.80;;;6.33;;
3939;SDS011;1984;48.312;9.244;2022-12-10T07:16:23;18.70;;;9.33;;
3939;SDS011;1984;48.312;9.244;2022-12-10T07:18:51;13.77;;;7.50;;
3939;SDS011;1984;48.312;9.244;2022-12-10T07:23:47;13.23;;;6.40;;
3939;SDS011;1984;48.312;9.244;2022-12-10T07:26:13;10.37;;;5.70;;
3939;SDS011;1984;48.312;9.244;2022-12-10T07:28:39;8.20;;;5.40;;
3939;SDS011;1984;48.312;9.244;2022-12-10T07:31:07;11.20;;;6.87;;
3939;SDS011;1984;48.312;9.244;2022-12-10T07:33:34;12.83;;;6.80;;
3939;SDS011;1984;48.312;9.244;2022-12-10T07:36:03;12.20;;;7.33;;
3939;SDS011;1984;48.312;9.244;2022-12-10T07:38:29;11.47;;;5.80;;
3939;SDS011;1984;48.312;9.244;2022-12-10T07:40:55;11.27;;;7.37;;
3939;SDS011;1984;48.312;9.244;2022-12-10T07:43:21;10.10;;;6.67;;
3939;SDS011;1984;48.312;9.244;2022-12-10T07:45:46;8.97;;;5.43;;
3939;SDS011;1984;48.312;9.244;2022-12-10T07:48:12;8.90;;;5.80;;
3939;SDS011;1984;48.312;9.244;2022-12-10T07:50:37;12.63;;;6.30;;
3939;SDS011;1984;48.312;9.244;2022-12-10T07:53:03;9.30;;;6.10;;
3939;SDS011;1984;48.312;9.244;2022-12-10T07:55:29;8.67;;;6.20;;
3939;SDS011;1984;48.312;9.244;2022-12-10T07:57:54;11.43;;;4.93;;
3939;SDS011;1984;48.312;9.244;2022-12-10T08:00:20;9.07;;;5.87;;
3939;SDS011;1984;48.312;9.244;2022-12-10T08:02:45;12.10;;;6.73;;
3939;SDS011;1984;48.312;9.244;2022-12-10T08:05:11;11.80;;;7.00;;
3939;SDS011;1984;48.312;9.244;2022-12-10T08:07:36;10.50;;;7.73;;
3939;SDS011;1984;48.312;9.244;2022-12-10T08:10:02;10.87;;;5.87;;
3939;SDS011;1984;48.312;9.244;2022-12-10T08:12:28;15.00;;;7.10;;
3939;SDS011;1984;48.312;9.244;2022-12-10T08:14:54;11.10;;;6.60;;
3939;SDS011;1984;48.312;9.244;2022-12-10T08:17:20;15.67;;;7.90;;
3939;SDS011;1984;48.312;9.244;2022-12-10T08:19:45;11.10;;;6.00;;
3939;SDS011;1984;48.312;9.244;2022-12-10T08:22:11;7.40;;;5.10;;
3939;SDS011;1984;48.312;9.244;2022-12-10T08:24:36;8.23;;;5.00;;
3939;SDS011;1984;48.312;9.244;2022-12-10T08:27:02;9.50;;;5.00;;
3939;SDS011;1984;48.312;9.244;2022-12-10T08:29:27;10.60;;;5.43;;
3939;SDS011;1984;48.312;9.244;2022-12-10T08:31:53;7.10;;;4.73;;
3939;SDS011;1984;48.312;9.244;2022-12-10T08:34:18;9.47;;;5.43;;
3939;SDS011;1984;48.312;9.244;2022-12-10T08:36:44;8.67;;;4.83;;
3939;SDS011;1984;48.312;9.244;2022-12-10T08:39:10;10.93;;;5.70;;
3939;SDS011;1984;48.312;9.244;2022-12-10T08:41:40;8.17;;;5.07;;
3939;SDS011;1984;48.312;9.244;2022-12-10T08:44:06;9.20;;;5.37;;
3939;SDS011;1984;48.312;9.244;2022-12-10T08:46:31;9.33;;;5.60;;
3939;SDS011;1984;48.312;9.244;2022-12-10T08:48:57;7.70;;;4.87;;
3939;SDS011;1984;48.312;9.244;2022-12-10T08:51:23;7.93;;;5.27;;
3939;SDS011;1984;48.312;9.244;2022-12-10T08:53:49;9.03;;;4.90;;
3939;SDS011;1984;48.312;9.244;2022-12-10T08:56:14;8.87;;;5.40;;
3939;SDS011;1984;48.312;9.244;2022-12-10T08:58:40;7.70;;;5.40;;
3939;SDS011;1984;48.312;9.244;2022-12-10T09:01:07;7.90;;;5.30;;
3939;SDS011;1984;48.312;9.244;2022-12-10T09:03:34;8.70;;;5.43;;
3939;SDS011;1984;48.312;9.244;2022-12-10T09:06:01;7.47;;;5.40;;
3939;SDS011;1984;48.312;9.244;2022-12-10T09:08:31;11.17;;;6.07;;
3939;SDS011;1984;48.312;9.244;2022-12-10T09:10:57;11.60;;;6.10;;
3939;SDS011;1984;48.312;9.244;2022-12-10T09:13:23;10.07;;;5.60;;
3939;SDS011;1984;48.312;9.244;2022-12-10T09:15:49;7.10;;;5.13;;
3939;SDS011;1984;48.312;9.244;2022-12-10T09:18:18;9.70;;;6.27;;
3939;SDS011;1984;48.312;9.244;2022-12-10T09:20:43;11.83;;;6.27;;
3939;SDS011;1984;48.312;9.244;2022-12-10T09:23:09;10.40;;;5.50;;
3939;SDS011;1984;48.312;9.244;2022-12-10T09:25:35;9.33;;;5.80;;
3939;SDS011;1984;48.312;9.244;2022-12-10T09:28:01;10.53;;;6.70;;
3939;SDS011;1984;48.312;9.244;2022-12-10T09:30:26;10.83;;;5.50;;
3939;SDS011;1984;48.312;9.244;2022-12-10T09:32:52;9.47;;;5.40;;
3939;SDS011;1984;48.312;9.244;2022-12-10T09:35:17;11.13;;;6.67;;
3939;SDS011;1984;48.312;9.244;2022-12-10T09:37:43;9.87;;;5.97;;
3939;SDS011;1984;48.312;9.244;2022-12-10T09:40:10;8.90;;;4.90;;
3939;SDS011;1984;48.312;9.244;2022-12-10T09:50:20;13.50;;;7.37;;
3939;SDS011;1984;48.312;9.244;2022-12-10T09:52:48;11.67;;;6.70;;
3939;SDS011;1984;48.312;9.244;2022-12-10T09:55:20;13.53;;;7.37;;
3939;SDS011;1984;48.312;9.244;2022-12-10T09:57:55;12.73;;;7.90;;
3939;SDS011;1984;48.312;9.244;2022-12-10T10:00:35;11.40;;;6.90;;
3939;SDS011;1984;48.312;9.244;2022-12-10T10:03:04;12.40;;;6.67;;
3939;SDS011;1984;48.312;9.244;2022-12-10T10:05:33;12.90;;;6.33;;
3939;SDS011;1984;48.312;9.244;2022-12-10T10:08:06;9.77;;;6.73;;
3939;SDS011;1984;48.312;9.244;2022-12-10T10:10:40;10.00;;;6.90;;
3939;SDS011;1984;48.312;9.244;2022-12-10T10:15:32;18.10;;;8.33;;
3939;SDS011;1984;48.312;9.244;2022-12-10T10:18:02;14.43;;;7.90;;
3939;SDS011;1984;48.312;9.244;2022-12-10T10:20:36;13.00;;;8.20;;
3939;SDS011;1984;48.312;9.244;2022-12-10T10:23:01;9.97;;;6.80;;
3939;SDS011;1984;48.312;9.244;2022-12-10T10:25:27;13.80;;;7.57;;
3939;SDS011;1984;48.312;9.244;2022-12-10T10:27:53;11.37;;;6.73;;
3939;SDS011;1984;48.312;9.244;2022-12-10T10:30:21;10.30;;;6.60;;
3939;SDS011;1984;48.312;9.244;2022-12-10T10:32:49;13.83;;;7.10;;
3939;SDS011;1984;48.312;9.244;2022-12-10T10:35:30;17.10;;;7.30;;
3939;SDS011;1984;48.312;9.244;2022-12-10T10:38:05;12.70;;;7.63;;
3939;SDS011;1984;48.312;9.244;2022-12-10T10:40:34;16.30;;;9.30;;
3939;SDS011;1984;48.312;9.244;2022-12-10T10:43:05;11.50;;;7.60;;
3939;SDS011;1984;48.312;9.244;2022-12-10T10:45:47;14.50;;;8.67;;
3939;SDS011;1984;48.312;9.244;2022-12-10T10:48:25;14.30;;;8.30;;
3939;SDS011;1984;48.312;9.244;2022-12-10T10:50:55;14.00;;;7.93;;
3939;SDS011;1984;48.312;9.244;2022-12-10T10:53:48;14.80;;;8.90;;
3939;SDS011;1984;48.312;9.244;2022-12-10T10:56:20;14.30;;;8.03;;
3939;SDS011;1984;48.312;9.244;2022-12-10T10:58:52;12.07;;;6.90;;
3939;SDS011;1984;48.312;9.244;2022-12-10T11:01:52;15.20;;;8.03;;
3939;SDS011;1984;48.312;9.244;2022-12-10T11:04:29;10.67;;;7.10;;
3939;SDS011;1984;48.312;9.244;2022-12-10T11:07:02;11.63;;;7.00;;
3939;SDS011;1984;48.312;9.244;2022-12-10T11:09:32;11.13;;;7.20;;
3939;SDS011;1984;48.312;9.244;2022-12-10T11:12:00;14.37;;;7.07;;
3939;SDS011;1984;48.312;9.244;2022-12-10T11:14:38;12.67;;;7.40;;
3939;SDS011;1984;48.312;9.244;2022-12-10T11:19:35;15.23;;;8.50;;
3939;SDS011;1984;48.312;9.244;2022-12-10T11:22:22;14.50;;;8.33;;
3939;SDS011;1984;48.312;9.244;2022-12-10T11:24:53;15.37;;;8.40;;
3939;SDS011;1984;48.312;9.244;2022-12-10T11:30:33;15.37;;;8.33;;
3939;SDS011;1984;48.312;9.244;2022-12-10T11:32:52;14.00;;;8.33;;
3939;SDS011;1984;48.312;9.244;2022-12-10T11:41:29;13.60;;;8.60;;
3939;SDS011;1984;48.312;9.244;2022-12-10T11:49:28;12.07;;;7.13;;
3939;SDS011;1984;48.312;9.244;2022-12-10T11:52:53;13.27;;;7.20;;
3939;SDS011;1984;48.312;9.244;2022-12-10T11:55:32;16.73;;;8.10;;
3939;SDS011;1984;48.312;9.244;2022-12-10T11:58:26;11.03;;;6.60;;
3939;SDS011;1984;48.312;9.244;2022-12-10T12:01:04;13.37;;;7.90;;
3939;SDS011;1984;48.312;9.244;2022-12-10T12:03:38;23.70;;;8.70;;
3939;SDS011;1984;48.312;9.244;2022-12-10T12:12:10;16.43;;;9.47;;
3939;SDS011;1984;48.312;9.244;2022-12-10T12:14:59;15.33;;;7.87;;
3939;SDS011;1984;48.312;9.244;2022-12-10T12:17:34;15.53;;;9.10;;
3939;SDS011;1984;48.312;9.244;2022-12-10T12:20:18;15.83;;;9.50;;
3939;SDS011;1984;48.312;9.244;2022-12-10T12:23:08;13.07;;;7.60;;
3939;SDS011;1984;48.312;9.244;2022-12-10T12:25:42;10.93;;;7.10;;
3939;SDS011;1984;48.312;9.244;2022-12-10T12:28:22;12.03;;;7.30;;
3939;SDS011;1984;48.312;9.244;2022-12-10T12:31:05;11.20;;;6.73;;
3939;SDS011;1984;48.312;9.244;2022-12-10T12:33:43;14.70;;;7.70;;
3939;SDS011;1984;48.312;9.244;2022-12-10T12:36:18;18.27;;;7.57;;
3939;SDS011;1984;48.312;9.244;2022-12-10T12:38:55;11.80;;;6.70;;
3939;SDS011;1984;48.312;9.244;2022-12-10T12:50:47;16.00;;;9.70;;
3939;SDS011;1984;48.312;9.244;2022-12-10T12:53:05;11.60;;;7.30;;
3939;SDS011;1984;48.312;9.244;2022-12-10T12:55:47;13.03;;;8.30;;
3939;SDS011;1984;48.312;9.244;2022-12-10T12:58:24;11.80;;;6.17;;
3939;SDS011;1984;48.312;9.244;2022-12-10T13:01:00;13.47;;;8.13;;
3939;SDS011;1984;48.312;9.244;2022-12-10T13:03:41;11.67;;;7.53;;
3939;SDS011;1984;48.312;9.244;2022-12-10T13:11:38;9.47;;;6.50;;
3939;SDS011;1984;48.312;9.244;2022-12-10T13:19:33;15.77;;;8.77;;
3939;SDS011;1984;48.312;9.244;2022-12-10T13:22:04;13.50;;;7.40;;
3939;SDS011;1984;48.312;9.244;2022-12-10T13:27:02;9.80;;;6.50;;
3939;SDS011;1984;48.312;9.244;2022-12-10T13:33:02;14.53;;;7.47;;
3939;SDS011;1984;48.312;9.244;2022-12-10T13:40:25;17.60;;;9.77;;
3939;SDS011;1984;48.312;9.244;2022-12-10T13:46:30;10.83;;;6.60;;
3939;SDS011;1984;48.312;9.244;2022-12-10T13:48:58;13.27;;;8.23;;
3939;SDS011;1984;48.312;9.244;2022-12-10T13:52:12;17.40;;;9.17;;
3939;SDS011;1984;48.312;9.244;2022-12-10T13:56:55;8.83;;;6.57;;
3939;SDS011;1984;48.312;9.244;2022-12-10T13:59:28;12.53;;;7.07;;
3939;SDS011;1984;48.312;9.244;2022-12-10T14:08:00;11.47;;;6.93;;
3939;SDS011;1984;48.312;9.244;2022-12-10T14:10:32;15.90;;;9.30;;
3939;SDS011;1984;48.312;9.244;2022-12-10T14:13:03;13.93;;;8.00;;
3939;SDS011;1984;48.312;9.244;2022-12-10T14:15:30;10.57;;;6.40;;
3939;SDS011;1984;48.312;9.244;2022-12-10T14:18:11;6.37;;;5.33;;
3939;SDS011;1984;48.312;9.244;2022-12-10T14:20:41;7.40;;;4.90;;
3939;SDS011;1984;48.312;9.244;2022-12-10T14:23:26;8.83;;;4.50;;
3939;SDS011;1984;48.312;9.244;2022-12-10T14:28:42;6.70;;;4.23;;
3939;SDS011;1984;48.312;9.244;2022-12-10T14:31:12;4.93;;;4.30;;
3939;SDS011;1984;48.312;9.244;2022-12-10T14:33:41;6.70;;;4.53;;
3939;SDS011;1984;48.312;9.244;2022-12-10T14:36:13;8.67;;;5.30;;
3939;SDS011;1984;48.312;9.244;2022-12-10T14:38:53;6.80;;;4.63;;
3939;SDS011;1984;48.312;9.244;2022-12-10T14:41:20;9.70;;;5.90;;
3939;SDS011;1984;48.312;9.244;2022-12-10T14:43:48;8.63;;;4.90;;
3939;SDS011;1984;48.312;9.244;2022-12-10T14:46:19;10.10;;;5.87;;
3939;SDS011;1984;48.312;9.244;2022-12-10T14:48:51;9.13;;;4.87;;
3939;SDS011;1984;48.312;9.244;2022-12-10T14:51:21;6.87;;;5.03;;
3939;SDS011;1984;48.312;9.244;2022-12-10T14:53:50;10.33;;;5.80;;
3939;SDS011;1984;48.312;9.244;2022-12-10T14:56:29;10.33;;;5.43;;
3939;SDS011;1984;48.312;9.244;2022-12-10T14:59:03;8.40;;;5.00;;
3939;SDS011;1984;48.312;9.244;2022-12-10T15:01:35;8.73;;;5.50;;
3939;SDS011;1984;48.312;9.244;2022-12-10T15:04:04;8.80;;;5.60;;
3939;SDS011;1984;48.312;9.244;2022-12-10T15:06:35;11.17;;;5.67;;
3939;SDS011;1984;48.312;9.244;2022-12-10T15:09:02;8.87;;;5.73;;
3939;SDS011;1984;48.312;9.244;2022-12-10T15:11:29;18.90;;;6.20;;
3939;SDS011;1984;48.312;9.244;2022-12-10T15:13:59;13.10;;;6.50;;
3939;SDS011;1984;48.312;9.244;2022-12-10T15:16:39;12.77;;;7.10;;
3939;SDS011;1984;48.312;9.244;2022-12-10T15:19:19;10.27;;;6.10;;
3939;SDS011;1984;48.312;9.244;2022-12-10T15:21:45;9.83;;;5.90;;
3939;SDS011;1984;48.312;9.244;2022-12-10T15:24:20;10.80;;;6.20;;
3939;SDS011;1984;48.312;9.244;2022-12-10T15:26:50;10.43;;;5.40;;
3939;SDS011;1984;48.312;9.244;2022-12-10T15:31:49;8.03;;;5.20;;
3939;SDS011;1984;48.312;9.244;2022-12-10T15:34:19;35.07;;;17.80;;
3939;SDS011;1984;48.312;9.244;2022-12-10T15:36:49;20.63;;;13.20;;
3939;SDS011;1984;48.312;9.244;2022-12-10T15:39:17;19.30;;;7.70;;
3939;SDS011;1984;48.312;9.244;2022-12-10T15:42:04;13.93;;;7.93;;
3939;SDS011;1984;48.312;9.244;2022-12-10T15:44:38;13.93;;;7.83;;
3939;SDS011;1984;48.312;9.244;2022-12-10T15:47:12;21.90;;;8.00;;
3939;SDS011;1984;48.312;9.244;2022-12-10T15:49:45;14.77;;;7.80;;
3939;SDS011;1984;48.312;9.244;2022-12-10T15:52:13;11.80;;;7.80;;
3939;SDS011;1984;48.312;9.244;2022-12-10T15:54:44;16.10;;;7.90;;
3939;SDS011;1984;48.312;9.244;2022-12-10T15:57:16;16.40;;;8.43;;
3939;SDS011;1984;48.312;9.244;2022-12-10T15:59:47;10.07;;;6.03;;
3939;SDS011;1984;48.312;9.244;2022-12-10T16:04:51;10.60;;;6.53;;
3939;SDS011;1984;48.312;9.244;2022-12-10T16:07:17;10.17;;;7.30;;
3939;SDS011;1984;48.312;9.244;2022-12-10T16:09:43;13.57;;;6.80;;
3939;SDS011;1984;48.312;9.244;2022-12-10T16:12:10;11.30;;;6.77;;
3939;SDS011;1984;48.312;9.244;2022-12-10T16:14:38;13.97;;;8.30;;
3939;SDS011;1984;48.312;9.244;2022-12-10T16:17:09;11.23;;;6.40;;
3939;SDS011;1984;48.312;9.244;2022-12-10T16:19:35;13.70;;;7.30;;
3939;SDS011;1984;48.312;9.244;2022-12-10T16:22:02;14.60;;;8.80;;
3939;SDS011;1984;48.312;9.244;2022-12-10T16:24:27;11.97;;;7.57;;
3939;SDS011;1984;48.312;9.244;2022-12-10T16:26:53;11.97;;;7.50;;
3939;SDS011;1984;48.312;9.244;2022-12-10T16:29:18;11.70;;;6.43;;
3939;SDS011;1984;48.312;9.244;2022-12-10T16:31:46;9.63;;;6.63;;
3939;SDS011;1984;48.312;9.244;2022-12-10T16:34:11;14.90;;;7.20;;
3939;SDS011;1984;48.312;9.244;2022-12-10T16:36:37;13.40;;;7.30;;
3939;SDS011;1984;48.312;9.244;2022-12-10T16:39:03;10.93;;;7.40;;
3939;SDS011;1984;48.312;9.244;2022-12-10T16:41:30;12.83;;;7.03;;
3939;SDS011;1984;48.312;9.244;2022-12-10T16:43:56;11.60;;;7.17;;
3939;SDS011;1984;48.312;9.244;2022-12-10T16:46:21;10.70;;;6.77;;
3939;SDS011;1984;48.312;9.244;2022-12-10T16:48:47;12.30;;;5.93;;